Barstow, Texas
Current Conditions -  °F | °C
As of 3:35 PM on Friday 28 Nov 2014 (Local Time) from KPEQ Reporting Station
Clear Clear  
Wind Chill: 76°   Ceiling: Unl
Heat Index: 76°   Visibility: 10mi
Dew Point: 27°   Wind: 3mph
Humidity: 16%   Direction: 120°ESE
Pressure: 30.03"   Gusts: NA
Location:  31.46°N, 103.39°W
Report Text: KPEQ 282135Z AUTO 12003KT 10SM CLR 25/M03 A3003 RMK AO2 T02471030
Loading
Personal Weather Stations






























Interactive Weather Map New forecast layout! Learn more

10-Day Weather Forecast

Advertisements
Track Severe Weather on mobile